sensor_id;sensor_type;location;lat;lon;timestamp;pressure;altitude;pressure_sealevel;temperature;humidity
46928;BME280;32668;51.306;-0.576;2022-08-01T00:02:27;101072.91;;;19.93;100.00
46928;BME280;32668;51.306;-0.576;2022-08-01T00:04:56;101073.81;;;19.93;100.00
46928;BME280;32668;51.306;-0.576;2022-08-01T00:07:21;101071.19;;;19.90;100.00
46928;BME280;32668;51.306;-0.576;2022-08-01T00:09:47;101068.53;;;19.91;100.00
46928;BME280;32668;51.306;-0.576;2022-08-01T00:12:12;101065.91;;;19.90;100.00
46928;BME280;32668;51.306;-0.576;2022-08-01T00:14:37;101071.16;;;19.85;100.00
46928;BME280;32668;51.306;-0.576;2022-08-01T00:17:03;101064.13;;;19.81;100.00
46928;BME280;32668;51.306;-0.576;2022-08-01T00:19:28;101074.72;;;19.80;100.00
46928;BME280;32668;51.306;-0.576;2022-08-01T00:21:54;101063.31;;;19.76;100.00
46928;BME280;32668;51.306;-0.576;2022-08-01T00:24:19;101063.28;;;19.74;100.00
46928;BME280;32668;51.306;-0.576;2022-08-01T00:26:45;101065.06;;;19.72;100.00
46928;BME280;32668;51.306;-0.576;2022-08-01T00:29:10;101067.75;;;19.68;100.00
46928;BME280;32668;51.306;-0.576;2022-08-01T00:31:36;101062.47;;;19.68;100.00
46928;BME280;32668;51.306;-0.576;2022-08-01T00:34:01;101066.88;;;19.66;100.00
46928;BME280;32668;51.306;-0.576;2022-08-01T00:36:26;101070.44;;;19.60;100.00
46928;BME280;32668;51.306;-0.576;2022-08-01T00:38:52;101067.78;;;19.55;100.00
46928;BME280;32668;51.306;-0.576;2022-08-01T00:41:17;101073.06;;;19.52;100.00
46928;BME280;32668;51.306;-0.576;2022-08-01T00:43:43;101073.97;;;19.50;100.00
46928;BME280;32668;51.306;-0.576;2022-08-01T00:46:08;101071.34;;;19.46;100.00
46928;BME280;32668;51.306;-0.576;2022-08-01T00:48:34;101074.00;;;19.42;100.00
46928;BME280;32668;51.306;-0.576;2022-08-01T00:50:59;101074.91;;;19.38;100.00
46928;BME280;32668;51.306;-0.576;2022-08-01T00:53:25;101075.78;;;19.37;100.00
46928;BME280;32668;51.306;-0.576;2022-08-01T00:55:50;101080.19;;;19.38;100.00
46928;BME280;32668;51.306;-0.576;2022-08-01T00:58:16;101076.69;;;19.37;100.00
46928;BME280;32668;51.306;-0.576;2022-08-01T01:00:42;101080.19;;;19.35;100.00
46928;BME280;32668;51.306;-0.576;2022-08-01T01:03:08;101083.72;;;19.35;100.00
46928;BME280;32668;51.306;-0.576;2022-08-01T01:05:40;101088.09;;;19.35;100.00
46928;BME280;32668;51.306;-0.576;2022-08-01T01:08:16;101085.50;;;19.33;100.00
46928;BME280;32668;51.306;-0.576;2022-08-01T01:10:48;101084.59;;;19.33;100.00
46928;BME280;32668;51.306;-0.576;2022-08-01T01:13:21;101081.94;;;19.33;100.00
46928;BME280;32668;51.306;-0.576;2022-08-01T01:15:58;101085.50;;;19.33;100.00
46928;BME280;32668;51.306;-0.576;2022-08-01T01:18:29;101087.25;;;19.31;100.00
46928;BME280;32668;51.306;-0.576;2022-08-01T01:26:23;101092.53;;;19.31;100.00
46928;BME280;32668;51.306;-0.576;2022-08-01T01:32:03;101094.31;;;19.23;100.00
46928;BME280;32668;51.306;-0.576;2022-08-01T01:34:32;101086.41;;;19.20;100.00
46928;BME280;32668;51.306;-0.576;2022-08-01T01:37:01;101088.16;;;19.19;100.00
46928;BME280;32668;51.306;-0.576;2022-08-01T01:39:28;101090.78;;;19.21;100.00
46928;BME280;32668;51.306;-0.576;2022-08-01T01:41:55;101087.28;;;19.20;100.00
46928;BME280;32668;51.306;-0.576;2022-08-01T01:44:21;101082.91;;;19.19;100.00
46928;BME280;32668;51.306;-0.576;2022-08-01T01:46:48;101079.38;;;19.20;100.00
46928;BME280;32668;51.306;-0.576;2022-08-01T01:49:15;101083.78;;;19.18;100.00
46928;BME280;32668;51.306;-0.576;2022-08-01T01:51:43;101076.72;;;19.15;100.00
46928;BME280;32668;51.306;-0.576;2022-08-01T01:54:09;101074.09;;;19.11;100.00
46928;BME280;32668;51.306;-0.576;2022-08-01T01:56:36;101080.28;;;19.07;100.00
46928;BME280;32668;51.306;-0.576;2022-08-01T01:59:16;101079.41;;;19.06;100.00
46928;BME280;32668;51.306;-0.576;2022-08-01T02:01:44;101077.63;;;19.00;100.00
46928;BME280;32668;51.306;-0.576;2022-08-01T02:04:11;101081.16;;;18.96;100.00
46928;BME280;32668;51.306;-0.576;2022-08-01T02:06:38;101075.88;;;18.96;100.00
46928;BME280;32668;51.306;-0.576;2022-08-01T02:09:04;101070.59;;;18.96;100.00
46928;BME280;32668;51.306;-0.576;2022-08-01T02:11:31;101067.09;;;18.94;100.00
46928;BME280;32668;51.306;-0.576;2022-08-01T02:14:01;101068.88;;;18.95;100.00
46928;BME280;32668;51.306;-0.576;2022-08-01T02:16:29;101076.75;;;18.92;100.00
46928;BME280;32668;51.306;-0.576;2022-08-01T02:18:56;101075.00;;;18.93;100.00
46928;BME280;32668;51.306;-0.576;2022-08-01T02:21:29;101079.38;;;18.87;100.00
46928;BME280;32668;51.306;-0.576;2022-08-01T02:24:03;101082.91;;;18.85;100.00
46928;BME280;32668;51.306;-0.576;2022-08-01T02:26:33;101080.28;;;18.85;100.00
46928;BME280;32668;51.306;-0.576;2022-08-01T02:29:05;101072.34;;;18.83;100.00
46928;BME280;32668;51.306;-0.576;2022-08-01T02:31:32;101070.63;;;18.81;100.00
46928;BME280;32668;51.306;-0.576;2022-08-01T02:34:06;101074.13;;;18.80;100.00
46928;BME280;32668;51.306;-0.576;2022-08-01T02:36:34;101073.25;;;18.78;100.00
46928;BME280;32668;51.306;-0.576;2022-08-01T02:39:13;101064.47;;;18.68;100.00
46928;BME280;32668;51.306;-0.576;2022-08-01T02:41:41;101065.34;;;18.71;100.00
46928;BME280;32668;51.306;-0.576;2022-08-01T02:44:09;101063.59;;;18.74;100.00
46928;BME280;32668;51.306;-0.576;2022-08-01T02:46:41;101067.97;;;18.75;100.00
46928;BME280;32668;51.306;-0.576;2022-08-01T02:49:09;101069.75;;;18.74;100.00
46928;BME280;32668;51.306;-0.576;2022-08-01T02:51:37;101068.88;;;18.75;100.00
46928;BME280;32668;51.306;-0.576;2022-08-01T02:54:06;101063.59;;;18.72;100.00
46928;BME280;32668;51.306;-0.576;2022-08-01T02:56:34;101065.34;;;18.71;100.00
46928;BME280;32668;51.306;-0.576;2022-08-01T02:59:15;101057.44;;;18.71;100.00
46928;BME280;32668;51.306;-0.576;2022-08-01T03:01:43;101063.59;;;18.70;100.00
46928;BME280;32668;51.306;-0.576;2022-08-01T03:04:10;101063.63;;;18.64;100.00
46928;BME280;32668;51.306;-0.576;2022-08-01T03:06:37;101067.13;;;18.60;100.00
46928;BME280;32668;51.306;-0.576;2022-08-01T03:09:04;101066.22;;;18.60;100.00
46928;BME280;32668;51.306;-0.576;2022-08-01T03:11:32;101068.00;;;18.61;100.00
46928;BME280;32668;51.306;-0.576;2022-08-01T03:14:02;101068.00;;;18.61;100.00
46928;BME280;32668;51.306;-0.576;2022-08-01T03:16:31;101068.88;;;18.61;100.00
46928;BME280;32668;51.306;-0.576;2022-08-01T03:19:00;101060.97;;;18.61;100.00
46928;BME280;32668;51.306;-0.576;2022-08-01T03:21:27;101069.75;;;18.55;100.00
46928;BME280;32668;51.306;-0.576;2022-08-01T03:23:55;101069.75;;;18.54;100.00
46928;BME280;32668;51.306;-0.576;2022-08-01T03:26:30;101072.38;;;18.54;100.00
46928;BME280;32668;51.306;-0.576;2022-08-01T03:29:02;101074.16;;;18.55;100.00
46928;BME280;32668;51.306;-0.576;2022-08-01T03:31:32;101067.13;;;18.54;100.00
46928;BME280;32668;51.306;-0.576;2022-08-01T03:33:59;101075.03;;;18.51;100.00
46928;BME280;32668;51.306;-0.576;2022-08-01T03:36:26;101075.91;;;18.48;100.00
46928;BME280;32668;51.306;-0.576;2022-08-01T03:38:56;101068.00;;;18.45;100.00
46928;BME280;32668;51.306;-0.576;2022-08-01T03:41:24;101067.97;;;18.44;100.00
46928;BME280;32668;51.306;-0.576;2022-08-01T03:44:03;101067.97;;;18.44;100.00
46928;BME280;32668;51.306;-0.576;2022-08-01T03:46:42;101072.41;;;18.43;100.00
46928;BME280;32668;51.306;-0.576;2022-08-01T03:49:14;101072.41;;;18.43;100.00
46928;BME280;32668;51.306;-0.576;2022-08-01T03:51:40;101070.63;;;18.39;100.00
46928;BME280;32668;51.306;-0.576;2022-08-01T03:54:07;101064.47;;;18.37;100.00
46928;BME280;32668;51.306;-0.576;2022-08-01T03:56:34;101060.09;;;18.36;100.00
46928;BME280;32668;51.306;-0.576;2022-08-01T03:59:03;101075.91;;;18.36;100.00
46928;BME280;32668;51.306;-0.576;2022-08-01T04:01:31;101068.00;;;18.37;100.00
46928;BME280;32668;51.306;-0.576;2022-08-01T04:03:58;101076.78;;;18.41;100.00
46928;BME280;32668;51.306;-0.576;2022-08-01T04:06:24;101083.81;;;18.39;100.00
46928;BME280;32668;51.306;-0.576;2022-08-01T04:08:50;101083.81;;;18.37;100.00
46928;BME280;32668;51.306;-0.576;2022-08-01T04:11:27;101076.78;;;18.38;100.00
46928;BME280;32668;51.306;-0.576;2022-08-01T04:13:53;101082.03;;;18.35;100.00
46928;BME280;32668;51.306;-0.576;2022-08-01T04:16:20;101072.38;;;18.32;100.00
46928;BME280;32668;51.306;-0.576;2022-08-01T04:18:46;101065.38;;;18.31;100.00
46928;BME280;32668;51.306;-0.576;2022-08-01T04:21:12;101069.75;;;18.29;100.00
46928;BME280;32668;51.306;-0.576;2022-08-01T04:23:41;101075.88;;;18.26;100.00
46928;BME280;32668;51.306;-0.576;2022-08-01T04:26:07;101066.25;;;18.25;100.00
46928;BME280;32668;51.306;-0.576;2022-08-01T04:28:36;101069.75;;;18.23;100.00
46928;BME280;32668;51.306;-0.576;2022-08-01T04:31:04;101062.72;;;18.22;100.00
46928;BME280;32668;51.306;-0.576;2022-08-01T04:33:31;101069.72;;;18.20;100.00
46928;BME280;32668;51.306;-0.576;2022-08-01T04:36:03;101063.56;;;18.18;100.00
46928;BME280;32668;51.306;-0.576;2022-08-01T04:38:30;101069.72;;;18.17;100.00
46928;BME280;32668;51.306;-0.576;2022-08-01T04:40:57;101067.97;;;18.14;100.00
46928;BME280;32668;51.306;-0.576;2022-08-01T04:43:23;101070.59;;;18.11;100.00
46928;BME280;32668;51.306;-0.576;2022-08-01T04:45:49;101076.75;;;18.10;100.00
46928;BME280;32668;51.306;-0.576;2022-08-01T04:48:17;101082.91;;;18.10;100.00
46928;BME280;32668;51.306;-0.576;2022-08-01T04:50:44;101085.53;;;18.12;100.00
46928;BME280;32668;51.306;-0.576;2022-08-01T04:53:14;101096.94;;;18.16;100.00
46928;BME280;32668;51.306;-0.576;2022-08-01T04:55:42;101094.31;;;18.14;100.00
46928;BME280;32668;51.306;-0.576;2022-08-01T04:58:09;101090.78;;;18.14;100.00
46928;BME280;32668;51.306;-0.576;2022-08-01T05:00:35;101088.19;;;18.10;100.00
46928;BME280;32668;51.306;-0.576;2022-08-01T05:03:01;101096.94;;;18.11;100.00
46928;BME280;32668;51.306;-0.576;2022-08-01T05:05:26;101100.47;;;18.13;100.00
46928;BME280;32668;51.306;-0.576;2022-08-01T05:07:51;101103.09;;;18.13;100.00
46928;BME280;32668;51.306;-0.576;2022-08-01T05:10:17;101100.47;;;18.16;100.00
46928;BME280;32668;51.306;-0.576;2022-08-01T05:12:42;101103.97;;;18.17;100.00
46928;BME280;32668;51.306;-0.576;2022-08-01T05:15:08;101107.50;;;18.17;100.00
46928;BME280;32668;51.306;-0.576;2022-08-01T05:17:34;101099.59;;;18.20;100.00
46928;BME280;32668;51.306;-0.576;2022-08-01T05:19:59;101110.13;;;18.20;100.00
46928;BME280;32668;51.306;-0.576;2022-08-01T05:22:24;101107.50;;;18.22;100.00
46928;BME280;32668;51.306;-0.576;2022-08-01T05:24:51;101110.13;;;18.25;100.00
46928;BME280;32668;51.306;-0.576;2022-08-01T05:27:17;101104.00;;;18.26;100.00
46928;BME280;32668;51.306;-0.576;2022-08-01T05:29:43;101103.09;;;18.29;100.00
46928;BME280;32668;51.306;-0.576;2022-08-01T05:32:08;101107.53;;;18.39;100.00
46928;BME280;32668;51.306;-0.576;2022-08-01T05:34:34;101096.97;;;18.47;100.00
46928;BME280;32668;51.306;-0.576;2022-08-01T05:37:00;101100.50;;;18.50;100.00
46928;BME280;32668;51.306;-0.576;2022-08-01T05:39:25;101100.50;;;18.52;100.00
46928;BME280;32668;51.306;-0.576;2022-08-01T05:41:51;101096.13;;;18.60;100.00
46928;BME280;32668;51.306;-0.576;2022-08-01T05:44:16;101098.75;;;18.62;100.00
46928;BME280;32668;51.306;-0.576;2022-08-01T05:46:42;101094.34;;;18.67;100.00
46928;BME280;32668;51.306;-0.576;2022-08-01T05:49:08;101085.56;;;18.69;100.00
46928;BME280;32668;51.306;-0.576;2022-08-01T05:51:33;101089.06;;;18.68;100.00
46928;BME280;32668;51.306;-0.576;2022-08-01T05:53:59;101091.72;;;18.70;100.00
46928;BME280;32668;51.306;-0.576;2022-08-01T05:56:25;101100.50;;;18.72;100.00
46928;BME280;32668;51.306;-0.576;2022-08-01T05:58:51;101103.16;;;18.81;100.00
46928;BME280;32668;51.306;-0.576;2022-08-01T06:01:17;101103.16;;;18.81;100.00
46928;BME280;32668;51.306;-0.576;2022-08-01T06:03:43;101104.00;;;18.79;100.00
46928;BME280;32668;51.306;-0.576;2022-08-01T06:06:08;101111.06;;;18.75;100.00
46928;BME280;32668;51.306;-0.576;2022-08-01T06:08:34;101109.28;;;18.76;100.00
46928;BME280;32668;51.306;-0.576;2022-08-01T06:10:59;101113.69;;;18.74;100.00
46928;BME280;32668;51.306;-0.576;2022-08-01T06:13:25;101110.16;;;18.67;100.00
46928;BME280;32668;51.306;-0.576;2022-08-01T06:15:50;101111.06;;;18.69;100.00
46928;BME280;32668;51.306;-0.576;2022-08-01T06:18:16;101110.16;;;18.64;100.00
46928;BME280;32668;51.306;-0.576;2022-08-01T06:20:42;101111.94;;;18.63;100.00
46928;BME280;32668;51.306;-0.576;2022-08-01T06:23:08;101104.03;;;18.60;100.00
46928;BME280;32668;51.306;-0.576;2022-08-01T06:25:33;101108.44;;;18.67;100.00
46928;BME280;32668;51.306;-0.576;2022-08-01T06:27:59;101118.06;;;18.75;100.00
46928;BME280;32668;51.306;-0.576;2022-08-01T06:30:25;101116.31;;;18.72;100.00
46928;BME280;32668;51.306;-0.576;2022-08-01T06:32:51;101117.22;;;18.77;100.00
46928;BME280;32668;51.306;-0.576;2022-08-01T06:35:17;101118.09;;;18.79;100.00
46928;BME280;32668;51.306;-0.576;2022-08-01T06:37:42;101118.06;;;18.85;100.00
46928;BME280;32668;51.306;-0.576;2022-08-01T06:40:10;101113.69;;;18.86;100.00
46928;BME280;32668;51.306;-0.576;2022-08-01T06:42:36;101118.94;;;18.91;100.00
46928;BME280;32668;51.306;-0.576;2022-08-01T06:45:06;101118.09;;;18.98;100.00
46928;BME280;32668;51.306;-0.576;2022-08-01T06:47:32;101105.75;;;19.23;100.00
46928;BME280;32668;51.306;-0.576;2022-08-01T06:49:59;101108.28;;;19.53;100.00
46928;BME280;32668;51.306;-0.576;2022-08-01T06:52:25;101112.63;;;19.68;100.00
46928;BME280;32668;51.306;-0.576;2022-08-01T06:54:50;101117.81;;;19.86;100.00
46928;BME280;32668;51.306;-0.576;2022-08-01T06:57:16;101122.16;;;20.01;100.00
46928;BME280;32668;51.306;-0.576;2022-08-01T06:59:41;101131.91;;;19.87;100.00
46928;BME280;32668;51.306;-0.576;2022-08-01T07:02:07;101134.56;;;19.87;100.00
46928;BME280;32668;51.306;-0.576;2022-08-01T07:04:33;101132.84;;;19.72;100.00
46928;BME280;32668;51.306;-0.576;2022-08-01T07:06:59;101132.03;;;19.56;100.00
46928;BME280;32668;51.306;-0.576;2022-08-01T07:09:24;101132.06;;;19.48;100.00
46928;BME280;32668;51.306;-0.576;2022-08-01T07:11:50;101132.09;;;19.34;100.00
46928;BME280;32668;51.306;-0.576;2022-08-01T07:14:17;101132.13;;;19.25;100.00
46928;BME280;32668;51.306;-0.576;2022-08-01T07:16:43;101126.88;;;19.20;100.00
46928;BME280;32668;51.306;-0.576;2022-08-01T07:19:08;101133.03;;;19.16;100.00
46928;BME280;32668;51.306;-0.576;2022-08-01T07:21:34;101133.88;;;19.13;100.00
46928;BME280;32668;51.306;-0.576;2022-08-01T07:24:00;101129.50;;;19.12;100.00
46928;BME280;32668;51.306;-0.576;2022-08-01T07:26:25;101126.88;;;19.01;100.00
46928;BME280;32668;51.306;-0.576;2022-08-01T07:28:51;101132.16;;;18.98;100.00
46928;BME280;32668;51.306;-0.576;2022-08-01T07:31:17;101144.47;;;19.01;100.00
46928;BME280;32668;51.306;-0.576;2022-08-01T07:33:42;101143.59;;;19.02;100.00
46928;BME280;32668;51.306;-0.576;2022-08-01T07:36:08;101149.72;;;18.96;100.00
46928;BME280;32668;51.306;-0.576;2022-08-01T07:38:33;101155.91;;;18.95;100.00
46928;BME280;32668;51.306;-0.576;2022-08-01T07:40:58;101155.91;;;18.95;100.00
46928;BME280;32668;51.306;-0.576;2022-08-01T07:43:24;101144.44;;;18.92;100.00
46928;BME280;32668;51.306;-0.576;2022-08-01T07:45:49;101139.19;;;18.99;100.00
46928;BME280;32668;51.306;-0.576;2022-08-01T07:48:15;101146.22;;;19.10;100.00
46928;BME280;32668;51.306;-0.576;2022-08-01T07:50:40;101144.47;;;19.18;100.00
46928;BME280;32668;51.306;-0.576;2022-08-01T07:53:05;101142.69;;;19.15;100.00
46928;BME280;32668;51.306;-0.576;2022-08-01T07:55:31;101140.06;;;19.06;100.00
46928;BME280;32668;51.306;-0.576;2022-08-01T07:57:57;101147.13;;;19.07;100.00
46928;BME280;32668;51.306;-0.576;2022-08-01T08:00:22;101153.25;;;19.08;100.00
46928;BME280;32668;51.306;-0.576;2022-08-01T08:02:48;101148.00;;;19.03;100.00
46928;BME280;32668;51.306;-0.576;2022-08-01T08:05:13;101157.63;;;19.10;100.00
46928;BME280;32668;51.306;-0.576;2022-08-01T08:07:39;101153.25;;;19.11;100.00
46928;BME280;32668;51.306;-0.576;2022-08-01T08:10:05;101150.63;;;19.14;100.00
46928;BME280;32668;51.306;-0.576;2022-08-01T08:12:31;101156.72;;;19.25;100.00
46928;BME280;32668;51.306;-0.576;2022-08-01T08:14:57;101151.44;;;19.35;100.00
46928;BME280;32668;51.306;-0.576;2022-08-01T08:17:26;101155.84;;;19.37;100.00
46928;BME280;32668;51.306;-0.576;2022-08-01T08:19:52;101147.00;;;19.51;100.00
46928;BME280;32668;51.306;-0.576;2022-08-01T08:22:18;101158.44;;;19.56;100.00
46928;BME280;32668;51.306;-0.576;2022-08-01T08:24:43;101157.56;;;19.54;100.00
46928;BME280;32668;51.306;-0.576;2022-08-01T08:27:09;101158.41;;;19.57;100.00
46928;BME280;32668;51.306;-0.576;2022-08-01T08:29:34;101155.78;;;19.59;100.00
46928;BME280;32668;51.306;-0.576;2022-08-01T08:32:00;101146.97;;;19.65;100.00
46928;BME280;32668;51.306;-0.576;2022-08-01T08:34:27;101150.47;;;19.67;100.00
46928;BME280;32668;51.306;-0.576;2022-08-01T08:36:53;101144.31;;;19.71;100.00
46928;BME280;32668;51.306;-0.576;2022-08-01T08:39:20;101152.22;;;19.69;100.00
46928;BME280;32668;51.306;-0.576;2022-08-01T08:41:47;101150.47;;;19.70;100.00
46928;BME280;32668;51.306;-0.576;2022-08-01T08:44:12;101161.00;;;19.74;100.00
46928;BME280;32668;51.306;-0.576;2022-08-01T08:46:43;101153.09;;;19.76;100.00
46928;BME280;32668;51.306;-0.576;2022-08-01T08:49:10;101159.25;;;19.73;100.00
46928;BME280;32668;51.306;-0.576;2022-08-01T08:51:38;101156.59;;;19.73;100.00
46928;BME280;32668;51.306;-0.576;2022-08-01T08:54:05;101161.00;;;19.71;100.00
46928;BME280;32668;51.306;-0.576;2022-08-01T08:56:31;101164.56;;;19.69;100.00
46928;BME280;32668;51.306;-0.576;2022-08-01T08:59:01;101161.00;;;19.77;100.00
46928;BME280;32668;51.306;-0.576;2022-08-01T09:01:27;101155.69;;;19.93;100.00
46928;BME280;32668;51.306;-0.576;2022-08-01T09:03:53;101153.00;;;20.07;100.00
46928;BME280;32668;51.306;-0.576;2022-08-01T09:06:19;101156.47;;;20.12;100.00
46928;BME280;32668;51.306;-0.576;2022-08-01T09:08:45;101153.66;;;20.37;100.00
46928;BME280;32668;51.306;-0.576;2022-08-01T09:11:11;101158.00;;;20.47;100.00
46928;BME280;32668;51.306;-0.576;2022-08-01T09:13:36;101153.47;;;20.66;99.47
46928;BME280;32668;51.306;-0.576;2022-08-01T09:16:02;101157.81;;;20.75;97.48
46928;BME280;32668;51.306;-0.576;2022-08-01T09:18:37;101155.22;;;20.71;97.26
46928;BME280;32668;51.306;-0.576;2022-08-01T09:21:20;101150.00;;;20.58;95.60
46928;BME280;32668;51.306;-0.576;2022-08-01T09:23:51;101150.94;;;20.49;96.97
46928;BME280;32668;51.306;-0.576;2022-08-01T09:26:28;101149.16;;;20.53;95.82
46928;BME280;32668;51.306;-0.576;2022-08-01T09:28:55;101157.03;;;20.62;96.34
46928;BME280;32668;51.306;-0.576;2022-08-01T09:31:20;101157.81;;;20.75;96.22
46928;BME280;32668;51.306;-0.576;2022-08-01T09:33:48;101162.25;;;20.76;94.77
46928;BME280;32668;51.306;-0.576;2022-08-01T09:36:14;101159.66;;;20.62;93.96
46928;BME280;32668;51.306;-0.576;2022-08-01T09:38:39;101163.28;;;20.50;94.26
46928;BME280;32668;51.306;-0.576;2022-08-01T09:41:05;101153.66;;;20.40;95.99
46928;BME280;32668;51.306;-0.576;2022-08-01T09:43:32;101156.28;;;20.40;96.54
46928;BME280;32668;51.306;-0.576;2022-08-01T09:45:59;101157.19;;;20.38;96.32
46928;BME280;32668;51.306;-0.576;2022-08-01T09:48:25;101154.50;;;20.47;95.82
46928;BME280;32668;51.306;-0.576;2022-08-01T09:50:52;101162.34;;;20.58;95.51
46928;BME280;32668;51.306;-0.576;2022-08-01T09:53:18;101163.13;;;20.77;94.06
46928;BME280;32668;51.306;-0.576;2022-08-01T09:55:44;101155.00;;;20.99;93.15
46928;BME280;32668;51.306;-0.576;2022-08-01T09:58:10;101165.47;;;21.13;90.13
46928;BME280;32668;51.306;-0.576;2022-08-01T10:00:37;101166.34;;;21.10;89.67
46928;BME280;32668;51.306;-0.576;2022-08-01T10:03:26;101175.16;;;21.12;90.08
46928;BME280;32668;51.306;-0.576;2022-08-01T10:05:52;101171.59;;;21.16;90.63
46928;BME280;32668;51.306;-0.576;2022-08-01T10:08:19;101172.53;;;21.09;91.19
46928;BME280;32668;51.306;-0.576;2022-08-01T10:11:10;101168.13;;;21.09;91.42
46928;BME280;32668;51.306;-0.576;2022-08-01T10:13:36;101176.06;;;21.08;91.15
46928;BME280;32668;51.306;-0.576;2022-08-01T10:16:02;101171.75;;;21.01;91.79
46928;BME280;32668;51.306;-0.576;2022-08-01T10:18:31;101173.59;;;20.91;92.24
46928;BME280;32668;51.306;-0.576;2022-08-01T10:20:58;101171.81;;;20.91;92.71
46928;BME280;32668;51.306;-0.576;2022-08-01T10:23:33;101179.78;;;20.88;92.37
46928;BME280;32668;51.306;-0.576;2022-08-01T10:26:00;101178.97;;;20.82;92.61
46928;BME280;32668;51.306;-0.576;2022-08-01T10:28:26;101175.41;;;20.83;93.16
46928;BME280;32668;51.306;-0.576;2022-08-01T10:30:56;101172.72;;;20.89;92.97
46928;BME280;32668;51.306;-0.576;2022-08-01T10:33:22;101167.38;;;20.97;93.27
46928;BME280;32668;51.306;-0.576;2022-08-01T10:35:48;101172.59;;;21.01;93.15
46928;BME280;32668;51.306;-0.576;2022-08-01T10:38:14;101168.22;;;20.97;93.21
46928;BME280;32668;51.306;-0.576;2022-08-01T10:40:41;101168.16;;;21.06;93.53
46928;BME280;32668;51.306;-0.576;2022-08-01T10:43:09;101158.28;;;21.25;92.97
46928;BME280;32668;51.306;-0.576;2022-08-01T10:45:35;101163.44;;;21.39;91.69
46928;BME280;32668;51.306;-0.576;2022-08-01T10:50:54;101158.25;;;21.29;92.45
46928;BME280;32668;51.306;-0.576;2022-08-01T10:53:22;101155.41;;;21.46;92.00
46928;BME280;32668;51.306;-0.576;2022-08-01T10:58:27;101148.00;;;21.76;90.03
46928;BME280;32668;51.306;-0.576;2022-08-01T11:09:22;101137.09;;;22.02;87.69
46928;BME280;32668;51.306;-0.576;2022-08-01T11:12:13;101141.56;;;21.98;86.88
46928;BME280;32668;51.306;-0.576;2022-08-01T11:17:40;101147.56;;;22.11;86.23
46928;BME280;32668;51.306;-0.576;2022-08-01T11:20:24;101151.13;;;22.09;86.05
46928;BME280;32668;51.306;-0.576;2022-08-01T11:30:47;101139.50;;;22.18;84.40
46928;BME280;32668;51.306;-0.576;2022-08-01T11:33:15;101135.28;;;22.03;84.57
46928;BME280;32668;51.306;-0.576;2022-08-01T11:38:43;101125.09;;;22.37;84.46
46928;BME280;32668;51.306;-0.576;2022-08-01T11:43:34;101112.88;;;22.83;83.21
46928;BME280;32668;51.306;-0.576;2022-08-01T11:46:00;101117.09;;;22.94;81.30
46928;BME280;32668;51.306;-0.576;2022-08-01T11:48:27;101113.66;;;22.88;81.40
46928;BME280;32668;51.306;-0.576;2022-08-01T11:50:56;101120.66;;;22.94;79.73
46928;BME280;32668;51.306;-0.576;2022-08-01T11:53:22;101110.75;;;23.02;78.78
46928;BME280;32668;51.306;-0.576;2022-08-01T11:55:52;101115.22;;;23.00;77.41
46928;BME280;32668;51.306;-0.576;2022-08-01T11:58:23;101107.53;;;23.33;76.96
46928;BME280;32668;51.306;-0.576;2022-08-01T12:03:32;101104.34;;;24.04;72.31
46928;BME280;32668;51.306;-0.576;2022-08-01T12:05:58;101101.88;;;24.32;69.72
46928;BME280;32668;51.306;-0.576;2022-08-01T12:08:31;101102.47;;;24.07;71.22
46928;BME280;32668;51.306;-0.576;2022-08-01T12:11:03;101102.97;;;24.25;70.59
46928;BME280;32668;51.306;-0.576;2022-08-01T12:13:39;101107.69;;;24.50;66.61
46928;BME280;32668;51.306;-0.576;2022-08-01T12:16:10;101100.94;;;24.73;66.33
46928;BME280;32668;51.306;-0.576;2022-08-01T12:18:40;101102.28;;;24.53;65.01
46928;BME280;32668;51.306;-0.576;2022-08-01T12:21:06;101105.25;;;24.41;68.75
46928;BME280;32668;51.306;-0.576;2022-08-01T12:23:31;101104.19;;;24.48;67.43
46928;BME280;32668;51.306;-0.576;2022-08-01T12:25:56;101096.75;;;24.24;69.00
46928;BME280;32668;51.306;-0.576;2022-08-01T12:28:22;101092.72;;;24.44;66.41
46928;BME280;32668;51.306;-0.576;2022-08-01T12:30:48;101085.75;;;25.09;63.92
46928;BME280;32668;51.306;-0.576;2022-08-01T12:33:17;101076.22;;;25.34;61.90
46928;BME280;32668;51.306;-0.576;2022-08-01T12:35:44;101078.53;;;25.76;61.12
46928;BME280;32668;51.306;-0.576;2022-08-01T12:38:18;101079.19;;;26.13;59.34
46928;BME280;32668;51.306;-0.576;2022-08-01T12:40:45;101068.97;;;26.53;56.05
46928;BME280;32668;51.306;-0.576;2022-08-01T12:43:18;101068.06;;;26.81;56.40
46928;BME280;32668;51.306;-0.576;2022-08-01T12:45:46;101063.66;;;26.53;53.83
46928;BME280;32668;51.306;-0.576;2022-08-01T12:48:15;101065.50;;;26.24;56.23
46928;BME280;32668;51.306;-0.576;2022-08-01T12:50:51;101062.88;;;25.65;57.50
46928;BME280;32668;51.306;-0.576;2022-08-01T12:53:17;101065.88;;;25.23;59.75
46928;BME280;32668;51.306;-0.576;2022-08-01T12:55:53;101059.06;;;25.11;61.04
46928;BME280;32668;51.306;-0.576;2022-08-01T12:58:19;101061.72;;;24.79;61.05
46928;BME280;32668;51.306;-0.576;2022-08-01T13:00:46;101060.22;;;24.67;62.16
46928;BME280;32668;51.306;-0.576;2022-08-01T13:03:17;101058.69;;;24.57;62.24
46928;BME280;32668;51.306;-0.576;2022-08-01T13:05:54;101060.84;;;24.79;61.84
46928;BME280;32668;51.306;-0.576;2022-08-01T13:10:47;101056.97;;;25.84;58.19
46928;BME280;32668;51.306;-0.576;2022-08-01T13:13:14;101061.78;;;25.71;59.07
46928;BME280;32668;51.306;-0.576;2022-08-01T13:15:43;101069.16;;;25.31;60.96
46928;BME280;32668;51.306;-0.576;2022-08-01T13:20:47;101066.19;;;25.10;60.98
46928;BME280;32668;51.306;-0.576;2022-08-01T13:23:14;101062.59;;;25.75;60.23